sensor_id;sensor_type;location;lat;lon;timestamp;temperature;humidity
921;DHT22;447;51.332;6.778;2022-08-19T00:01:45;25.80;68.80
921;DHT22;447;51.332;6.778;2022-08-19T00:04:14;25.80;68.80
921;DHT22;447;51.332;6.778;2022-08-19T00:06:43;25.70;68.80
921;DHT22;447;51.332;6.778;2022-08-19T00:09:12;25.70;68.80
921;DHT22;447;51.332;6.778;2022-08-19T00:11:39;25.80;68.90
921;DHT22;447;51.332;6.778;2022-08-19T00:14:08;25.70;68.80
921;DHT22;447;51.332;6.778;2022-08-19T00:16:39;25.70;68.80
921;DHT22;447;51.332;6.778;2022-08-19T00:19:05;25.70;68.90
921;DHT22;447;51.332;6.778;2022-08-19T00:21:33;25.70;68.90
921;DHT22;447;51.332;6.778;2022-08-19T00:24:04;25.70;68.90
921;DHT22;447;51.332;6.778;2022-08-19T00:26:30;25.70;69.00
921;DHT22;447;51.332;6.778;2022-08-19T00:28:58;25.60;68.90
921;DHT22;447;51.332;6.778;2022-08-19T00:31:26;25.60;68.90
921;DHT22;447;51.332;6.778;2022-08-19T00:33:54;25.60;69.70
921;DHT22;447;51.332;6.778;2022-08-19T00:36:23;25.60;68.90
921;DHT22;447;51.332;6.778;2022-08-19T00:38:49;25.60;68.90
921;DHT22;447;51.332;6.778;2022-08-19T00:41:19;25.60;68.90
921;DHT22;447;51.332;6.778;2022-08-19T00:44:09;25.60;68.90
921;DHT22;447;51.332;6.778;2022-08-19T00:46:41;25.60;69.00
921;DHT22;447;51.332;6.778;2022-08-19T00:49:35;25.50;68.90
921;DHT22;447;51.332;6.778;2022-08-19T00:52:12;25.60;69.00
921;DHT22;447;51.332;6.778;2022-08-19T00:54:40;25.50;68.90
921;DHT22;447;51.332;6.778;2022-08-19T00:57:10;25.50;68.90
921;DHT22;447;51.332;6.778;2022-08-19T00:59:40;25.50;68.90
921;DHT22;447;51.332;6.778;2022-08-19T01:02:09;25.50;69.00
921;DHT22;447;51.332;6.778;2022-08-19T01:04:37;25.50;69.10
921;DHT22;447;51.332;6.778;2022-08-19T01:07:04;25.50;69.10
921;DHT22;447;51.332;6.778;2022-08-19T01:09:30;25.50;69.10
921;DHT22;447;51.332;6.778;2022-08-19T01:11:57;25.50;69.20
921;DHT22;447;51.332;6.778;2022-08-19T01:14:24;25.40;69.10
921;DHT22;447;51.332;6.778;2022-08-19T01:16:55;25.40;69.10
921;DHT22;447;51.332;6.778;2022-08-19T01:19:40;25.40;69.00
921;DHT22;447;51.332;6.778;2022-08-19T01:22:27;25.40;69.00
921;DHT22;447;51.332;6.778;2022-08-19T01:24:56;25.40;69.00
921;DHT22;447;51.332;6.778;2022-08-19T01:27:22;25.40;69.10
921;DHT22;447;51.332;6.778;2022-08-19T01:29:51;25.40;69.20
921;DHT22;447;51.332;6.778;2022-08-19T01:32:20;25.30;69.00
921;DHT22;447;51.332;6.778;2022-08-19T01:34:48;25.30;69.00
921;DHT22;447;51.332;6.778;2022-08-19T01:37:16;25.30;69.00
921;DHT22;447;51.332;6.778;2022-08-19T01:39:43;25.30;69.10
921;DHT22;447;51.332;6.778;2022-08-19T01:42:09;25.30;69.20
921;DHT22;447;51.332;6.778;2022-08-19T01:44:40;25.30;69.20
921;DHT22;447;51.332;6.778;2022-08-19T01:47:07;25.30;69.20
921;DHT22;447;51.332;6.778;2022-08-19T01:49:36;25.30;69.30
921;DHT22;447;51.332;6.778;2022-08-19T01:52:03;25.20;69.10
921;DHT22;447;51.332;6.778;2022-08-19T01:54:30;25.30;69.30
921;DHT22;447;51.332;6.778;2022-08-19T01:57:07;25.30;69.30
921;DHT22;447;51.332;6.778;2022-08-19T01:59:34;25.20;69.20
921;DHT22;447;51.332;6.778;2022-08-19T02:02:05;25.20;69.20
921;DHT22;447;51.332;6.778;2022-08-19T02:04:39;25.20;69.20
921;DHT22;447;51.332;6.778;2022-08-19T02:07:08;25.20;69.20
921;DHT22;447;51.332;6.778;2022-08-19T02:09:37;25.20;69.30
921;DHT22;447;51.332;6.778;2022-08-19T02:12:06;25.20;69.20
921;DHT22;447;51.332;6.778;2022-08-19T02:14:35;25.20;69.30
921;DHT22;447;51.332;6.778;2022-08-19T02:17:01;25.20;69.20
921;DHT22;447;51.332;6.778;2022-08-19T02:19:29;25.10;69.10
921;DHT22;447;51.332;6.778;2022-08-19T02:22:00;25.10;69.10
921;DHT22;447;51.332;6.778;2022-08-19T02:24:34;25.10;69.10
921;DHT22;447;51.332;6.778;2022-08-19T02:27:03;25.10;69.10
921;DHT22;447;51.332;6.778;2022-08-19T02:29:30;25.10;69.10
921;DHT22;447;51.332;6.778;2022-08-19T02:31:56;25.10;69.10
921;DHT22;447;51.332;6.778;2022-08-19T02:34:25;25.10;69.10
921;DHT22;447;51.332;6.778;2022-08-19T02:36:53;25.00;69.00
921;DHT22;447;51.332;6.778;2022-08-19T02:39:19;25.00;69.00
921;DHT22;447;51.332;6.778;2022-08-19T02:41:47;25.00;69.10
921;DHT22;447;51.332;6.778;2022-08-19T02:44:15;25.00;69.00
921;DHT22;447;51.332;6.778;2022-08-19T02:46:41;25.00;69.00
921;DHT22;447;51.332;6.778;2022-08-19T02:49:10;25.00;69.00
921;DHT22;447;51.332;6.778;2022-08-19T02:51:40;25.00;69.10
921;DHT22;447;51.332;6.778;2022-08-19T02:54:11;25.00;69.00
921;DHT22;447;51.332;6.778;2022-08-19T02:56:38;25.00;69.00
921;DHT22;447;51.332;6.778;2022-08-19T02:59:05;24.90;69.00
921;DHT22;447;51.332;6.778;2022-08-19T03:01:39;24.90;68.90
921;DHT22;447;51.332;6.778;2022-08-19T03:04:07;24.90;68.90
921;DHT22;447;51.332;6.778;2022-08-19T03:06:39;24.90;69.00
921;DHT22;447;51.332;6.778;2022-08-19T03:09:11;24.90;68.90
921;DHT22;447;51.332;6.778;2022-08-19T03:11:38;24.90;69.00
921;DHT22;447;51.332;6.778;2022-08-19T03:14:08;24.90;69.00
921;DHT22;447;51.332;6.778;2022-08-19T03:16:49;24.90;69.00
921;DHT22;447;51.332;6.778;2022-08-19T03:19:19;24.90;69.00
921;DHT22;447;51.332;6.778;2022-08-19T03:21:48;24.80;68.80
921;DHT22;447;51.332;6.778;2022-08-19T03:24:14;24.80;68.80
921;DHT22;447;51.332;6.778;2022-08-19T03:26:44;24.80;68.90
921;DHT22;447;51.332;6.778;2022-08-19T03:29:19;24.80;68.80
921;DHT22;447;51.332;6.778;2022-08-19T03:31:47;24.80;68.80
921;DHT22;447;51.332;6.778;2022-08-19T03:34:17;24.80;68.90
921;DHT22;447;51.332;6.778;2022-08-19T03:36:43;24.80;68.80
921;DHT22;447;51.332;6.778;2022-08-19T03:39:15;24.70;68.70
921;DHT22;447;51.332;6.778;2022-08-19T03:41:47;24.70;68.80
921;DHT22;447;51.332;6.778;2022-08-19T03:44:20;24.70;68.80
921;DHT22;447;51.332;6.778;2022-08-19T03:46:53;24.70;68.80
921;DHT22;447;51.332;6.778;2022-08-19T03:49:22;24.70;69.60
921;DHT22;447;51.332;6.778;2022-08-19T03:51:49;24.70;68.80
921;DHT22;447;51.332;6.778;2022-08-19T03:54:20;24.70;68.80
921;DHT22;447;51.332;6.778;2022-08-19T03:56:49;24.70;68.80
921;DHT22;447;51.332;6.778;2022-08-19T03:59:28;24.70;68.80
921;DHT22;447;51.332;6.778;2022-08-19T04:01:59;24.60;68.70
921;DHT22;447;51.332;6.778;2022-08-19T04:04:26;24.60;68.80
921;DHT22;447;51.332;6.778;2022-08-19T04:06:52;24.60;68.70
921;DHT22;447;51.332;6.778;2022-08-19T04:09:19;24.60;68.70
921;DHT22;447;51.332;6.778;2022-08-19T04:11:52;24.60;68.80
921;DHT22;447;51.332;6.778;2022-08-19T04:14:22;24.60;68.80
921;DHT22;447;51.332;6.778;2022-08-19T04:16:52;24.60;68.70
921;DHT22;447;51.332;6.778;2022-08-19T04:19:19;24.50;68.70
921;DHT22;447;51.332;6.778;2022-08-19T04:21:48;24.50;68.60
921;DHT22;447;51.332;6.778;2022-08-19T04:24:17;24.50;68.70
921;DHT22;447;51.332;6.778;2022-08-19T04:26:43;24.50;68.70
921;DHT22;447;51.332;6.778;2022-08-19T04:29:22;24.50;68.70
921;DHT22;447;51.332;6.778;2022-08-19T04:31:54;24.50;68.70
921;DHT22;447;51.332;6.778;2022-08-19T04:34:23;24.50;68.70
921;DHT22;447;51.332;6.778;2022-08-19T04:36:51;24.50;68.70
921;DHT22;447;51.332;6.778;2022-08-19T04:39:28;24.50;68.80
921;DHT22;447;51.332;6.778;2022-08-19T04:42:13;24.50;68.80
921;DHT22;447;51.332;6.778;2022-08-19T04:45:01;24.40;68.70
921;DHT22;447;51.332;6.778;2022-08-19T04:47:29;24.40;68.70
921;DHT22;447;51.332;6.778;2022-08-19T04:49:58;24.40;68.70
921;DHT22;447;51.332;6.778;2022-08-19T04:52:24;24.40;68.80
921;DHT22;447;51.332;6.778;2022-08-19T04:54:50;24.40;68.80
921;DHT22;447;51.332;6.778;2022-08-19T04:57:16;24.40;68.70
921;DHT22;447;51.332;6.778;2022-08-19T04:59:42;24.40;68.80
921;DHT22;447;51.332;6.778;2022-08-19T05:02:10;24.40;68.80
921;DHT22;447;51.332;6.778;2022-08-19T05:04:41;24.40;68.80
921;DHT22;447;51.332;6.778;2022-08-19T05:07:09;24.30;68.80
921;DHT22;447;51.332;6.778;2022-08-19T05:09:38;24.30;68.80
921;DHT22;447;51.332;6.778;2022-08-19T05:12:09;24.30;68.70
921;DHT22;447;51.332;6.778;2022-08-19T05:14:34;24.30;68.70
921;DHT22;447;51.332;6.778;2022-08-19T05:17:05;24.30;68.80
921;DHT22;447;51.332;6.778;2022-08-19T05:19:33;24.30;68.80
921;DHT22;447;51.332;6.778;2022-08-19T05:22:23;24.30;68.90
921;DHT22;447;51.332;6.778;2022-08-19T05:25:01;24.20;68.70
921;DHT22;447;51.332;6.778;2022-08-19T05:27:27;24.20;68.80
921;DHT22;447;51.332;6.778;2022-08-19T05:29:58;24.20;68.80
921;DHT22;447;51.332;6.778;2022-08-19T05:32:25;24.20;68.80
921;DHT22;447;51.332;6.778;2022-08-19T05:34:51;24.20;69.00
921;DHT22;447;51.332;6.778;2022-08-19T05:37:17;24.20;69.00
921;DHT22;447;51.332;6.778;2022-08-19T05:39:45;24.20;69.00
921;DHT22;447;51.332;6.778;2022-08-19T05:42:14;24.20;69.00
921;DHT22;447;51.332;6.778;2022-08-19T05:44:43;24.20;69.10
921;DHT22;447;51.332;6.778;2022-08-19T05:47:11;24.20;69.20
921;DHT22;447;51.332;6.778;2022-08-19T05:49:38;24.20;69.30
921;DHT22;447;51.332;6.778;2022-08-19T05:52:07;24.10;69.20
921;DHT22;447;51.332;6.778;2022-08-19T05:54:34;24.10;69.40
921;DHT22;447;51.332;6.778;2022-08-19T05:57:06;24.10;69.50
921;DHT22;447;51.332;6.778;2022-08-19T05:59:37;24.10;69.60
921;DHT22;447;51.332;6.778;2022-08-19T06:02:05;24.10;69.70
921;DHT22;447;51.332;6.778;2022-08-19T06:04:37;24.10;69.80
921;DHT22;447;51.332;6.778;2022-08-19T06:07:04;24.10;69.80
921;DHT22;447;51.332;6.778;2022-08-19T06:09:31;24.10;69.90
921;DHT22;447;51.332;6.778;2022-08-19T06:11:57;24.10;70.00
921;DHT22;447;51.332;6.778;2022-08-19T06:14:30;24.10;70.10
921;DHT22;447;51.332;6.778;2022-08-19T06:16:57;24.10;70.20
921;DHT22;447;51.332;6.778;2022-08-19T06:19:37;24.10;70.30
921;DHT22;447;51.332;6.778;2022-08-19T06:22:04;24.10;70.30
921;DHT22;447;51.332;6.778;2022-08-19T06:24:32;24.10;70.40
921;DHT22;447;51.332;6.778;2022-08-19T06:26:59;24.10;70.70
921;DHT22;447;51.332;6.778;2022-08-19T06:29:26;24.10;70.80
921;DHT22;447;51.332;6.778;2022-08-19T06:31:55;24.00;70.80
921;DHT22;447;51.332;6.778;2022-08-19T06:34:25;24.00;71.10
921;DHT22;447;51.332;6.778;2022-08-19T06:36:57;24.00;71.20
921;DHT22;447;51.332;6.778;2022-08-19T06:39:31;24.00;71.30
921;DHT22;447;51.332;6.778;2022-08-19T06:42:00;24.00;71.40
921;DHT22;447;51.332;6.778;2022-08-19T06:44:30;24.00;71.40
921;DHT22;447;51.332;6.778;2022-08-19T06:47:02;24.00;71.50
921;DHT22;447;51.332;6.778;2022-08-19T06:49:29;24.00;71.70
921;DHT22;447;51.332;6.778;2022-08-19T06:51:59;24.00;71.80
921;DHT22;447;51.332;6.778;2022-08-19T06:54:28;24.00;72.10
921;DHT22;447;51.332;6.778;2022-08-19T06:57:01;24.00;72.20
921;DHT22;447;51.332;6.778;2022-08-19T06:59:28;24.00;72.40
921;DHT22;447;51.332;6.778;2022-08-19T07:02:03;24.00;72.60
921;DHT22;447;51.332;6.778;2022-08-19T07:04:31;24.00;72.60
921;DHT22;447;51.332;6.778;2022-08-19T07:07:00;24.00;72.60
921;DHT22;447;51.332;6.778;2022-08-19T07:09:27;24.00;72.80
921;DHT22;447;51.332;6.778;2022-08-19T07:11:56;24.00;72.80
921;DHT22;447;51.332;6.778;2022-08-19T07:14:25;24.00;72.80
921;DHT22;447;51.332;6.778;2022-08-19T07:16:57;24.00;72.80
921;DHT22;447;51.332;6.778;2022-08-19T07:19:24;24.00;72.90
921;DHT22;447;51.332;6.778;2022-08-19T07:22:15;24.00;73.00
921;DHT22;447;51.332;6.778;2022-08-19T07:24:43;24.00;73.10
921;DHT22;447;51.332;6.778;2022-08-19T07:27:14;24.00;73.10
921;DHT22;447;51.332;6.778;2022-08-19T07:29:42;24.00;73.10
921;DHT22;447;51.332;6.778;2022-08-19T07:32:08;24.00;73.00
921;DHT22;447;51.332;6.778;2022-08-19T07:34:34;24.00;73.20
921;DHT22;447;51.332;6.778;2022-08-19T07:37:06;24.00;73.20
921;DHT22;447;51.332;6.778;2022-08-19T07:39:34;24.00;73.30
921;DHT22;447;51.332;6.778;2022-08-19T07:42:04;24.00;73.40
921;DHT22;447;51.332;6.778;2022-08-19T07:44:34;24.00;73.30
921;DHT22;447;51.332;6.778;2022-08-19T07:47:00;24.00;73.40
921;DHT22;447;51.332;6.778;2022-08-19T07:49:29;24.00;73.40
921;DHT22;447;51.332;6.778;2022-08-19T07:51:58;24.00;73.30
921;DHT22;447;51.332;6.778;2022-08-19T07:54:29;24.00;73.40
921;DHT22;447;51.332;6.778;2022-08-19T07:57:00;24.10;74.40
921;DHT22;447;51.332;6.778;2022-08-19T07:59:27;24.10;73.60
921;DHT22;447;51.332;6.778;2022-08-19T08:01:55;24.10;73.80
921;DHT22;447;51.332;6.778;2022-08-19T08:04:21;24.10;73.90
921;DHT22;447;51.332;6.778;2022-08-19T08:07:07;24.10;74.00
921;DHT22;447;51.332;6.778;2022-08-19T08:09:57;24.10;74.10
921;DHT22;447;51.332;6.778;2022-08-19T08:12:36;24.10;74.40
921;DHT22;447;51.332;6.778;2022-08-19T08:15:11;24.10;74.50
921;DHT22;447;51.332;6.778;2022-08-19T08:17:43;24.10;74.30
921;DHT22;447;51.332;6.778;2022-08-19T08:20:10;24.10;74.30
921;DHT22;447;51.332;6.778;2022-08-19T08:22:37;24.10;74.30
921;DHT22;447;51.332;6.778;2022-08-19T08:25:26;24.10;74.20
921;DHT22;447;51.332;6.778;2022-08-19T08:27:57;24.10;74.30
921;DHT22;447;51.332;6.778;2022-08-19T08:30:30;24.10;74.50
921;DHT22;447;51.332;6.778;2022-08-19T08:32:58;24.20;74.40
921;DHT22;447;51.332;6.778;2022-08-19T08:35:24;24.20;74.40
921;DHT22;447;51.332;6.778;2022-08-19T08:37:53;24.20;74.60
921;DHT22;447;51.332;6.778;2022-08-19T08:40:42;24.20;74.80
921;DHT22;447;51.332;6.778;2022-08-19T08:43:27;24.20;74.80
921;DHT22;447;51.332;6.778;2022-08-19T08:51:09;24.20;74.70
921;DHT22;447;51.332;6.778;2022-08-19T08:53:38;24.20;74.80
921;DHT22;447;51.332;6.778;2022-08-19T08:56:27;24.30;74.80
921;DHT22;447;51.332;6.778;2022-08-19T08:59:05;24.30;74.90
921;DHT22;447;51.332;6.778;2022-08-19T09:01:34;24.30;75.20
921;DHT22;447;51.332;6.778;2022-08-19T09:04:04;24.30;75.10
921;DHT22;447;51.332;6.778;2022-08-19T09:11:55;24.40;74.70
921;DHT22;447;51.332;6.778;2022-08-19T09:17:25;24.40;74.60
921;DHT22;447;51.332;6.778;2022-08-19T09:22:25;24.50;74.50
921;DHT22;447;51.332;6.778;2022-08-19T09:24:57;24.50;75.20
921;DHT22;447;51.332;6.778;2022-08-19T09:27:27;24.50;75.00
921;DHT22;447;51.332;6.778;2022-08-19T09:29:54;24.50;74.20
921;DHT22;447;51.332;6.778;2022-08-19T09:32:22;24.60;74.20
921;DHT22;447;51.332;6.778;2022-08-19T09:34:48;24.60;74.10
921;DHT22;447;51.332;6.778;2022-08-19T09:37:16;24.60;74.10
921;DHT22;447;51.332;6.778;2022-08-19T09:39:43;24.60;74.70
921;DHT22;447;51.332;6.778;2022-08-19T09:42:12;24.70;74.00
921;DHT22;447;51.332;6.778;2022-08-19T09:44:41;24.70;73.90
921;DHT22;447;51.332;6.778;2022-08-19T09:47:13;24.70;74.00
921;DHT22;447;51.332;6.778;2022-08-19T09:49:42;24.70;74.10
921;DHT22;447;51.332;6.778;2022-08-19T09:52:09;24.70;74.00
921;DHT22;447;51.332;6.778;2022-08-19T09:54:37;24.70;73.90
921;DHT22;447;51.332;6.778;2022-08-19T09:57:03;24.70;73.80
921;DHT22;447;51.332;6.778;2022-08-19T09:59:30;24.80;73.80
921;DHT22;447;51.332;6.778;2022-08-19T10:01:58;24.80;73.70
921;DHT22;447;51.332;6.778;2022-08-19T10:04:39;24.80;73.80
921;DHT22;447;51.332;6.778;2022-08-19T10:07:26;24.90;73.80
921;DHT22;447;51.332;6.778;2022-08-19T10:09:52;24.90;73.80
921;DHT22;447;51.332;6.778;2022-08-19T10:12:18;24.90;73.80
921;DHT22;447;51.332;6.778;2022-08-19T10:14:44;24.90;73.80
921;DHT22;447;51.332;6.778;2022-08-19T10:17:15;24.90;73.80
921;DHT22;447;51.332;6.778;2022-08-19T10:19:41;25.00;73.80
921;DHT22;447;51.332;6.778;2022-08-19T10:22:10;25.00;73.80
921;DHT22;447;51.332;6.778;2022-08-19T10:24:39;25.00;73.80
921;DHT22;447;51.332;6.778;2022-08-19T10:27:05;25.00;73.70
921;DHT22;447;51.332;6.778;2022-08-19T10:29:36;25.00;73.60
921;DHT22;447;51.332;6.778;2022-08-19T10:32:06;25.10;73.80
921;DHT22;447;51.332;6.778;2022-08-19T10:34:37;25.10;73.60
921;DHT22;447;51.332;6.778;2022-08-19T10:37:05;25.10;73.60
921;DHT22;447;51.332;6.778;2022-08-19T10:39:35;25.10;73.40
921;DHT22;447;51.332;6.778;2022-08-19T10:42:08;25.20;73.40
921;DHT22;447;51.332;6.778;2022-08-19T10:44:36;25.20;73.40
921;DHT22;447;51.332;6.778;2022-08-19T10:47:03;25.20;73.30
921;DHT22;447;51.332;6.778;2022-08-19T10:49:33;25.20;73.30
921;DHT22;447;51.332;6.778;2022-08-19T10:52:22;25.20;73.20
921;DHT22;447;51.332;6.778;2022-08-19T10:55:01;25.30;73.20
921;DHT22;447;51.332;6.778;2022-08-19T10:57:45;25.30;73.20
921;DHT22;447;51.332;6.778;2022-08-19T11:00:14;25.30;73.00
921;DHT22;447;51.332;6.778;2022-08-19T11:02:41;25.40;73.00
921;DHT22;447;51.332;6.778;2022-08-19T11:05:08;25.40;72.90
921;DHT22;447;51.332;6.778;2022-08-19T11:07:39;25.40;72.90
921;DHT22;447;51.332;6.778;2022-08-19T11:10:09;25.40;72.70
921;DHT22;447;51.332;6.778;2022-08-19T11:12:39;25.40;72.60
921;DHT22;447;51.332;6.778;2022-08-19T11:15:08;25.50;72.50
921;DHT22;447;51.332;6.778;2022-08-19T11:17:38;25.50;72.40
921;DHT22;447;51.332;6.778;2022-08-19T11:20:25;25.50;72.30
921;DHT22;447;51.332;6.778;2022-08-19T11:22:56;25.50;72.30
921;DHT22;447;51.332;6.778;2022-08-19T11:25:24;25.60;72.30
921;DHT22;447;51.332;6.778;2022-08-19T11:27:55;25.60;72.20
921;DHT22;447;51.332;6.778;2022-08-19T11:30:21;25.60;72.10
921;DHT22;447;51.332;6.778;2022-08-19T11:32:47;25.60;72.00
921;DHT22;447;51.332;6.778;2022-08-19T11:35:13;25.60;72.00
921;DHT22;447;51.332;6.778;2022-08-19T11:37:47;25.70;71.90
921;DHT22;447;51.332;6.778;2022-08-19T11:40:18;25.70;71.80
921;DHT22;447;51.332;6.778;2022-08-19T11:42:47;25.70;71.70
921;DHT22;447;51.332;6.778;2022-08-19T11:45:27;25.80;71.70
921;DHT22;447;51.332;6.778;2022-08-19T11:48:04;25.80;71.50
921;DHT22;447;51.332;6.778;2022-08-19T11:50:35;25.90;71.40
921;DHT22;447;51.332;6.778;2022-08-19T11:53:07;25.90;71.30
921;DHT22;447;51.332;6.778;2022-08-19T11:55:38;25.90;71.10
921;DHT22;447;51.332;6.778;2022-08-19T11:58:08;26.00;71.10
921;DHT22;447;51.332;6.778;2022-08-19T12:00:37;26.00;70.90
921;DHT22;447;51.332;6.778;2022-08-19T12:06:51;26.00;70.50
921;DHT22;447;51.332;6.778;2022-08-19T12:13:39;26.10;70.20
921;DHT22;447;51.332;6.778;2022-08-19T12:16:15;26.10;69.80
921;DHT22;447;51.332;6.778;2022-08-19T12:18:48;26.10;69.90
921;DHT22;447;51.332;6.778;2022-08-19T12:21:15;26.10;69.70
921;DHT22;447;51.332;6.778;2022-08-19T12:26:58;26.20;69.30
921;DHT22;447;51.332;6.778;2022-08-19T12:29:24;26.20;69.10
921;DHT22;447;51.332;6.778;2022-08-19T12:32:04;26.20;69.10
921;DHT22;447;51.332;6.778;2022-08-19T12:34:32;26.20;68.80
921;DHT22;447;51.332;6.778;2022-08-19T12:37:00;26.30;68.70
921;DHT22;447;51.332;6.778;2022-08-19T12:43:07;26.30;68.60
921;DHT22;447;51.332;6.778;2022-08-19T12:45:34;26.30;68.30
921;DHT22;447;51.332;6.778;2022-08-19T12:48:05;26.30;67.80
921;DHT22;447;51.332;6.778;2022-08-19T12:50:31;26.40;67.60
921;DHT22;447;51.332;6.778;2022-08-19T12:53:00;26.40;67.50
921;DHT22;447;51.332;6.778;2022-08-19T12:55:29;26.40;67.10
921;DHT22;447;51.332;6.778;2022-08-19T12:57:55;26.50;67.40
921;DHT22;447;51.332;6.778;2022-08-19T13:03:40;26.50;67.30
921;DHT22;447;51.332;6.778;2022-08-19T13:06:23;26.60;67.30
921;DHT22;447;51.332;6.778;2022-08-19T13:13:48;26.60;67.00
921;DHT22;447;51.332;6.778;2022-08-19T13:16:27;26.60;67.00
921;DHT22;447;51.332;6.778;2022-08-19T13:18:54;26.70;67.10
921;DHT22;447;51.332;6.778;2022-08-19T13:21:27;26.70;66.90
921;DHT22;447;51.332;6.778;2022-08-19T13:23:57;26.70;66.70
921;DHT22;447;51.332;6.778;2022-08-19T13:26:24;26.70;66.40
921;DHT22;447;51.332;6.778;2022-08-19T13:28:51;26.80;66.00
921;DHT22;447;51.332;6.778;2022-08-19T13:35:58;26.80;65.90
921;DHT22;447;51.332;6.778;2022-08-19T13:38:53;26.90;65.80
921;DHT22;447;51.332;6.778;2022-08-19T13:41:22;26.90;65.70
921;DHT22;447;51.332;6.778;2022-08-19T13:43:48;26.90;65.50
921;DHT22;447;51.332;6.778;2022-08-19T13:46:14;26.90;65.70
921;DHT22;447;51.332;6.778;2022-08-19T13:49:09;27.00;65.50
921;DHT22;447;51.332;6.778;2022-08-19T13:51:37;27.00;65.30
921;DHT22;447;51.332;6.778;2022-08-19T13:54:08;27.00;65.20
921;DHT22;447;51.332;6.778;2022-08-19T13:56:35;27.10;64.90
921;DHT22;447;51.332;6.778;2022-08-19T13:59:07;27.10;64.70
921;DHT22;447;51.332;6.778;2022-08-19T14:01:36;27.10;64.60
921;DHT22;447;51.332;6.778;2022-08-19T14:04:04;27.20;64.40
921;DHT22;447;51.332;6.778;2022-08-19T14:06:35;27.20;64.40
921;DHT22;447;51.332;6.778;2022-08-19T14:09:01;27.20;64.30
921;DHT22;447;51.332;6.778;2022-08-19T14:11:30;27.20;64.20
921;DHT22;447;51.332;6.778;2022-08-19T14:14:26;27.30;63.80
921;DHT22;447;51.332;6.778;2022-08-19T14:16:52;27.30;63.90
921;DHT22;447;51.332;6.778;2022-08-19T14:19:18;27.30;63.90
921;DHT22;447;51.332;6.778;2022-08-19T14:21:47;27.40;63.90
921;DHT22;447;51.332;6.778;2022-08-19T14:24:15;27.40;63.70
921;DHT22;447;51.332;6.778;2022-08-19T14:26:41;27.40;63.80
921;DHT22;447;51.332;6.778;2022-08-19T14:29:07;27.40;63.70
921;DHT22;447;51.332;6.778;2022-08-19T14:31:33;27.50;63.70
921;DHT22;447;51.332;6.778;2022-08-19T14:34:02;27.50;63.60
921;DHT22;447;51.332;6.778;2022-08-19T14:36:28;27.50;63.70
921;DHT22;447;51.332;6.778;2022-08-19T14:39:01;27.60;63.60
921;DHT22;447;51.332;6.778;2022-08-19T14:41:27;27.60;63.60
921;DHT22;447;51.332;6.778;2022-08-19T14:43:57;27.60;63.50
921;DHT22;447;51.332;6.778;2022-08-19T14:46:27;27.60;63.40
921;DHT22;447;51.332;6.778;2022-08-19T14:48:54;27.70;63.40
921;DHT22;447;51.332;6.778;2022-08-19T14:51:24;27.70;63.50
921;DHT22;447;51.332;6.778;2022-08-19T14:53:52;27.70;63.60
921;DHT22;447;51.332;6.778;2022-08-19T14:56:21;27.70;63.40
921;DHT22;447;51.332;6.778;2022-08-19T14:58:47;27.80;63.40
921;DHT22;447;51.332;6.778;2022-08-19T15:01:17;27.80;63.50
921;DHT22;447;51.332;6.778;2022-08-19T15:03:47;27.80;63.40
921;DHT22;447;51.332;6.778;2022-08-19T15:06:21;27.80;63.40
921;DHT22;447;51.332;6.778;2022-08-19T15:08:48;27.80;63.20
921;DHT22;447;51.332;6.778;2022-08-19T15:11:20;27.90;62.80
921;DHT22;447;51.332;6.778;2022-08-19T15:13:49;27.90;62.70
921;DHT22;447;51.332;6.778;2022-08-19T15:16:19;28.00;62.90
921;DHT22;447;51.332;6.778;2022-08-19T15:18:51;28.00;62.80
921;DHT22;447;51.332;6.778;2022-08-19T15:21:18;28.00;62.60
921;DHT22;447;51.332;6.778;2022-08-19T15:23:48;28.00;62.40
921;DHT22;447;51.332;6.778;2022-08-19T15:26:18;28.00;62.30
921;DHT22;447;51.332;6.778;2022-08-19T15:28:45;28.10;62.00
921;DHT22;447;51.332;6.778;2022-08-19T15:31:19;28.10;61.70
921;DHT22;447;51.332;6.778;2022-08-19T15:33:45;28.10;61.70
921;DHT22;447;51.332;6.778;2022-08-19T15:36:17;28.10;61.70
921;DHT22;447;51.332;6.778;2022-08-19T15:38:45;28.20;61.60
921;DHT22;447;51.332;6.778;2022-08-19T15:41:23;28.20;61.50
921;DHT22;447;51.332;6.778;2022-08-19T15:43:57;28.20;61.10
921;DHT22;447;51.332;6.778;2022-08-19T15:46:26;28.30;61.00
921;DHT22;447;51.332;6.778;2022-08-19T15:48:53;28.30;61.10
921;DHT22;447;51.332;6.778;2022-08-19T15:51:29;28.30;61.20
921;DHT22;447;51.332;6.778;2022-08-19T15:53:58;28.30;61.30
921;DHT22;447;51.332;6.778;2022-08-19T15:56:27;28.30;61.00
921;DHT22;447;51.332;6.778;2022-08-19T15:59:13;28.40;60.80
921;DHT22;447;51.332;6.778;2022-08-19T16:02:00;28.40;60.50
921;DHT22;447;51.332;6.778;2022-08-19T16:04:45;28.50;60.30
921;DHT22;447;51.332;6.778;2022-08-19T16:07:49;28.50;60.10
921;DHT22;447;51.332;6.778;2022-08-19T16:10:20;28.60;60.00
921;DHT22;447;51.332;6.778;2022-08-19T16:12:48;28.60;59.80
921;DHT22;447;51.332;6.778;2022-08-19T16:15:14;28.60;59.80
921;DHT22;447;51.332;6.778;2022-08-19T16:17:43;28.70;59.70
921;DHT22;447;51.332;6.778;2022-08-19T16:20:10;28.70;59.70
921;DHT22;447;51.332;6.778;2022-08-19T16:22:36;28.70;59.70
921;DHT22;447;51.332;6.778;2022-08-19T16:25:08;28.70;59.50
921;DHT22;447;51.332;6.778;2022-08-19T16:27:35;28.80;59.20
921;DHT22;447;51.332;6.778;2022-08-19T16:30:04;28.80;59.10
921;DHT22;447;51.332;6.778;2022-08-19T16:32:30;28.80;59.00
921;DHT22;447;51.332;6.778;2022-08-19T16:34:58;28.80;59.20
921;DHT22;447;51.332;6.778;2022-08-19T16:37:29;28.90;59.40
921;DHT22;447;51.332;6.778;2022-08-19T16:39:56;28.90;59.50
921;DHT22;447;51.332;6.778;2022-08-19T16:42:24;29.00;59.50
921;DHT22;447;51.332;6.778;2022-08-19T16:44:53;29.00;59.40
921;DHT22;447;51.332;6.778;2022-08-19T16:47:21;29.00;59.10
921;DHT22;447;51.332;6.778;2022-08-19T16:49:50;29.10;59.10
921;DHT22;447;51.332;6.778;2022-08-19T16:52:17;29.00;59.20
921;DHT22;447;51.332;6.778;2022-08-19T16:54:43;29.10;59.40
921;DHT22;447;51.332;6.778;2022-08-19T16:57:10;29.10;59.40
921;DHT22;447;51.332;6.778;2022-08-19T16:59:36;29.10;59.40
921;DHT22;447;51.332;6.778;2022-08-19T17:02:09;29.10;59.40
921;DHT22;447;51.332;6.778;2022-08-19T17:04:37;29.10;59.60
921;DHT22;447;51.332;6.778;2022-08-19T17:07:08;29.10;59.70
921;DHT22;447;51.332;6.778;2022-08-19T17:09:35;29.10;59.80
921;DHT22;447;51.332;6.778;2022-08-19T17:12:03;29.00;59.80
921;DHT22;447;51.332;6.778;2022-08-19T17:14:29;29.00;60.00
921;DHT22;447;51.332;6.778;2022-08-19T17:16:55;29.00;60.10
921;DHT22;447;51.332;6.778;2022-08-19T17:19:24;29.00;60.10
921;DHT22;447;51.332;6.778;2022-08-19T17:22:01;28.90;60.10
921;DHT22;447;51.332;6.778;2022-08-19T17:24:32;28.90;60.40
921;DHT22;447;51.332;6.778;2022-08-19T17:26:58;28.90;60.50
921;DHT22;447;51.332;6.778;2022-08-19T17:29:28;28.80;60.60
921;DHT22;447;51.332;6.778;2022-08-19T17:31:54;28.80;60.70
921;DHT22;447;51.332;6.778;2022-08-19T17:34:23;28.80;60.80
921;DHT22;447;51.332;6.778;2022-08-19T17:36:51;28.80;60.90
921;DHT22;447;51.332;6.778;2022-08-19T17:39:24;28.80;61.10